sensor_id;sensor_type;location;lat;lon;timestamp;pressure;altitude;pressure_sealevel;temperature;humidity
39555;BME280;25231;48.746;9.234;2022-07-10T00:02:08;97351.69;;;17.30;97.40
39555;BME280;25231;48.746;9.234;2022-07-10T00:04:33;97355.19;;;17.35;97.63
39555;BME280;25231;48.746;9.234;2022-07-10T00:06:59;97360.03;;;17.43;95.09
39555;BME280;25231;48.746;9.234;2022-07-10T00:09:27;97359.88;;;17.60;94.12
39555;BME280;25231;48.746;9.234;2022-07-10T00:11:53;97359.75;;;17.45;95.32
39555;BME280;25231;48.746;9.234;2022-07-10T00:14:19;97360.50;;;17.40;96.71
39555;BME280;25231;48.746;9.234;2022-07-10T00:16:45;97346.97;;;17.37;95.64
39555;BME280;25231;48.746;9.234;2022-07-10T00:19:11;97350.44;;;17.37;94.06
39555;BME280;25231;48.746;9.234;2022-07-10T00:21:36;97338.22;;;17.31;94.29
39555;BME280;25231;48.746;9.234;2022-07-10T00:24:02;97334.63;;;17.11;94.92
39555;BME280;25231;48.746;9.234;2022-07-10T00:26:28;97344.53;;;17.25;94.27
39555;BME280;25231;48.746;9.234;2022-07-10T00:28:53;97344.31;;;17.00;93.60
39555;BME280;25231;48.746;9.234;2022-07-10T00:31:20;97337.31;;;17.16;92.65
39555;BME280;25231;48.746;9.234;2022-07-10T00:33:46;97338.22;;;17.31;92.71
39555;BME280;25231;48.746;9.234;2022-07-10T00:36:11;97343.63;;;17.10;91.60
39555;BME280;25231;48.746;9.234;2022-07-10T00:38:37;97346.28;;;17.10;92.58
39555;BME280;25231;48.746;9.234;2022-07-10T00:41:02;97337.84;;;17.18;91.59
39555;BME280;25231;48.746;9.234;2022-07-10T00:43:28;97339.97;;;17.16;90.91
39555;BME280;25231;48.746;9.234;2022-07-10T00:45:53;97345.28;;;17.21;91.22
39555;BME280;25231;48.746;9.234;2022-07-10T00:48:19;97347.94;;;17.21;90.90
39555;BME280;25231;48.746;9.234;2022-07-10T00:50:45;97341.28;;;17.18;91.24
39555;BME280;25231;48.746;9.234;2022-07-10T00:53:14;97338.78;;;17.01;92.29
39555;BME280;25231;48.746;9.234;2022-07-10T00:55:41;97341.75;;;17.05;92.28
39555;BME280;25231;48.746;9.234;2022-07-10T00:58:07;97334.56;;;17.05;92.56
39555;BME280;25231;48.746;9.234;2022-07-10T01:00:36;97333.28;;;17.08;92.25
39555;BME280;25231;48.746;9.234;2022-07-10T01:03:05;97325.75;;;16.95;93.11
39555;BME280;25231;48.746;9.234;2022-07-10T01:05:30;97330.25;;;16.94;93.57
39555;BME280;25231;48.746;9.234;2022-07-10T01:07:56;97326.41;;;17.12;92.97
39555;BME280;25231;48.746;9.234;2022-07-10T01:10:22;97319.75;;;17.04;93.07
39555;BME280;25231;48.746;9.234;2022-07-10T01:12:48;97319.00;;;16.77;94.39
39555;BME280;25231;48.746;9.234;2022-07-10T01:15:13;97318.19;;;16.72;95.11
39555;BME280;25231;48.746;9.234;2022-07-10T01:17:39;97319.47;;;16.69;94.55
39555;BME280;25231;48.746;9.234;2022-07-10T01:20:08;97314.41;;;16.68;94.31
39555;BME280;25231;48.746;9.234;2022-07-10T01:22:35;97315.97;;;16.63;94.99
39555;BME280;25231;48.746;9.234;2022-07-10T01:25:02;97322.75;;;16.81;93.92
39555;BME280;25231;48.746;9.234;2022-07-10T01:27:28;97317.75;;;16.58;95.40
39555;BME280;25231;48.746;9.234;2022-07-10T01:29:54;97320.47;;;16.63;94.55
39555;BME280;25231;48.746;9.234;2022-07-10T01:32:19;97315.69;;;16.60;95.07
39555;BME280;25231;48.746;9.234;2022-07-10T01:34:45;97314.78;;;16.49;95.46
39555;BME280;25231;48.746;9.234;2022-07-10T01:37:12;97312.69;;;16.56;95.50
39555;BME280;25231;48.746;9.234;2022-07-10T01:39:38;97313.63;;;16.40;96.59
39555;BME280;25231;48.746;9.234;2022-07-10T01:42:03;97311.53;;;16.42;96.24
39555;BME280;25231;48.746;9.234;2022-07-10T01:44:29;97311.44;;;16.32;96.86
39555;BME280;25231;48.746;9.234;2022-07-10T01:46:54;97304.22;;;16.54;95.90
39555;BME280;25231;48.746;9.234;2022-07-10T01:49:20;97309.13;;;16.41;96.17
39555;BME280;25231;48.746;9.234;2022-07-10T01:51:45;97302.31;;;16.23;97.92
39555;BME280;25231;48.746;9.234;2022-07-10T01:54:11;97302.88;;;16.25;97.45
39555;BME280;25231;48.746;9.234;2022-07-10T01:56:36;97316.00;;;16.15;97.82
39555;BME280;25231;48.746;9.234;2022-07-10T01:59:03;97317.31;;;16.12;98.14
39555;BME280;25231;48.746;9.234;2022-07-10T02:01:30;97316.31;;;16.18;97.95
39555;BME280;25231;48.746;9.234;2022-07-10T02:03:55;97311.72;;;16.09;98.15
39555;BME280;25231;48.746;9.234;2022-07-10T02:06:39;97311.97;;;16.07;98.04
39555;BME280;25231;48.746;9.234;2022-07-10T02:09:05;97311.81;;;15.92;99.07
39555;BME280;25231;48.746;9.234;2022-07-10T02:11:30;97310.25;;;15.96;99.22
39555;BME280;25231;48.746;9.234;2022-07-10T02:13:56;97314.44;;;15.92;99.82
39555;BME280;25231;48.746;9.234;2022-07-10T02:16:21;97317.56;;;15.89;100.00
39555;BME280;25231;48.746;9.234;2022-07-10T02:18:47;97316.63;;;16.00;99.20
39555;BME280;25231;48.746;9.234;2022-07-10T02:21:12;97306.81;;;15.96;99.02
39555;BME280;25231;48.746;9.234;2022-07-10T02:23:38;97301.59;;;15.79;100.00
39555;BME280;25231;48.746;9.234;2022-07-10T02:26:06;97308.06;;;15.88;99.94
39555;BME280;25231;48.746;9.234;2022-07-10T02:28:31;97309.47;;;15.74;100.00
39555;BME280;25231;48.746;9.234;2022-07-10T02:30:57;97308.84;;;15.67;100.00
39555;BME280;25231;48.746;9.234;2022-07-10T02:33:22;97321.63;;;15.53;100.00
39555;BME280;25231;48.746;9.234;2022-07-10T02:35:48;97324.03;;;15.55;100.00
39555;BME280;25231;48.746;9.234;2022-07-10T02:38:13;97321.56;;;15.70;100.00
39555;BME280;25231;48.746;9.234;2022-07-10T02:40:39;97323.22;;;15.54;100.00
39555;BME280;25231;48.746;9.234;2022-07-10T02:43:04;97329.44;;;15.65;100.00
39555;BME280;25231;48.746;9.234;2022-07-10T02:45:30;97331.47;;;15.58;100.00
39555;BME280;25231;48.746;9.234;2022-07-10T02:47:55;97335.94;;;15.79;100.00
39555;BME280;25231;48.746;9.234;2022-07-10T02:50:21;97335.94;;;15.57;100.00
39555;BME280;25231;48.746;9.234;2022-07-10T02:52:46;97339.03;;;15.71;100.00
39555;BME280;25231;48.746;9.234;2022-07-10T02:55:11;97340.94;;;15.54;100.00
39555;BME280;25231;48.746;9.234;2022-07-10T02:57:37;97334.97;;;15.63;100.00
39555;BME280;25231;48.746;9.234;2022-07-10T03:00:03;97346.97;;;15.71;100.00
39555;BME280;25231;48.746;9.234;2022-07-10T03:02:28;97341.75;;;15.76;100.00
39555;BME280;25231;48.746;9.234;2022-07-10T03:04:54;97336.13;;;15.72;100.00
39555;BME280;25231;48.746;9.234;2022-07-10T03:07:19;97342.34;;;15.61;100.00
39555;BME280;25231;48.746;9.234;2022-07-10T03:09:45;97336.88;;;15.68;100.00
39555;BME280;25231;48.746;9.234;2022-07-10T03:12:10;97345.03;;;15.66;100.00
39555;BME280;25231;48.746;9.234;2022-07-10T03:14:36;97337.00;;;15.78;100.00
39555;BME280;25231;48.746;9.234;2022-07-10T03:17:01;97341.47;;;15.56;100.00
39555;BME280;25231;48.746;9.234;2022-07-10T03:19:27;97340.31;;;15.68;100.00
39555;BME280;25231;48.746;9.234;2022-07-10T03:21:52;97340.81;;;15.87;100.00
39555;BME280;25231;48.746;9.234;2022-07-10T03:24:17;97342.72;;;15.70;100.00
39555;BME280;25231;48.746;9.234;2022-07-10T03:26:43;97341.63;;;15.66;100.00
39555;BME280;25231;48.746;9.234;2022-07-10T03:29:09;97343.56;;;15.54;100.00
39555;BME280;25231;48.746;9.234;2022-07-10T03:31:35;97339.38;;;15.58;100.00
39555;BME280;25231;48.746;9.234;2022-07-10T03:34:01;97348.06;;;15.53;100.00
39555;BME280;25231;48.746;9.234;2022-07-10T03:36:26;97348.44;;;15.45;100.00
39555;BME280;25231;48.746;9.234;2022-07-10T03:38:52;97346.44;;;15.52;100.00
39555;BME280;25231;48.746;9.234;2022-07-10T03:41:17;97346.00;;;15.44;100.00
39555;BME280;25231;48.746;9.234;2022-07-10T03:43:42;97344.59;;;15.53;100.00
39555;BME280;25231;48.746;9.234;2022-07-10T03:46:08;97339.41;;;15.41;100.00
39555;BME280;25231;48.746;9.234;2022-07-10T03:48:34;97338.97;;;15.49;100.00
39555;BME280;25231;48.746;9.234;2022-07-10T03:51:00;97335.78;;;15.47;100.00
39555;BME280;25231;48.746;9.234;2022-07-10T03:53:26;97332.06;;;15.26;100.00
39555;BME280;25231;48.746;9.234;2022-07-10T03:55:52;97337.59;;;15.25;100.00
39555;BME280;25231;48.746;9.234;2022-07-10T03:58:18;97330.13;;;15.22;100.00
39555;BME280;25231;48.746;9.234;2022-07-10T04:00:43;97331.66;;;15.18;100.00
39555;BME280;25231;48.746;9.234;2022-07-10T04:03:09;97332.13;;;15.31;100.00
39555;BME280;25231;48.746;9.234;2022-07-10T04:05:35;97334.41;;;15.45;100.00
39555;BME280;25231;48.746;9.234;2022-07-10T04:08:02;97329.94;;;15.45;100.00
39555;BME280;25231;48.746;9.234;2022-07-10T04:10:29;97340.84;;;15.49;100.00
39555;BME280;25231;48.746;9.234;2022-07-10T04:12:55;97339.19;;;15.26;100.00
39555;BME280;25231;48.746;9.234;2022-07-10T04:15:20;97333.69;;;15.49;100.00
39555;BME280;25231;48.746;9.234;2022-07-10T04:17:47;97328.75;;;15.74;100.00
39555;BME280;25231;48.746;9.234;2022-07-10T04:20:14;97329.69;;;15.85;100.00
39555;BME280;25231;48.746;9.234;2022-07-10T04:22:40;97338.72;;;15.67;100.00
39555;BME280;25231;48.746;9.234;2022-07-10T04:25:06;97335.72;;;15.59;100.00
39555;BME280;25231;48.746;9.234;2022-07-10T04:27:32;97337.44;;;15.70;100.00
39555;BME280;25231;48.746;9.234;2022-07-10T04:29:58;97336.50;;;15.59;100.00
39555;BME280;25231;48.746;9.234;2022-07-10T04:32:23;97343.47;;;15.65;100.00
39555;BME280;25231;48.746;9.234;2022-07-10T04:34:49;97344.22;;;15.27;100.00
39555;BME280;25231;48.746;9.234;2022-07-10T04:37:16;97343.06;;;15.40;100.00
39555;BME280;25231;48.746;9.234;2022-07-10T04:39:41;97345.88;;;15.33;100.00
39555;BME280;25231;48.746;9.234;2022-07-10T04:42:07;97347.81;;;15.05;100.00
39555;BME280;25231;48.746;9.234;2022-07-10T04:44:33;97338.47;;;15.14;100.00
39555;BME280;25231;48.746;9.234;2022-07-10T04:46:58;97345.50;;;15.25;100.00
39555;BME280;25231;48.746;9.234;2022-07-10T04:49:24;97348.41;;;15.07;100.00
39555;BME280;25231;48.746;9.234;2022-07-10T04:51:50;97342.66;;;15.10;100.00
39555;BME280;25231;48.746;9.234;2022-07-10T04:54:16;97338.72;;;15.12;100.00
39555;BME280;25231;48.746;9.234;2022-07-10T04:56:41;97342.88;;;15.25;100.00
39555;BME280;25231;48.746;9.234;2022-07-10T04:59:07;97347.44;;;15.13;100.00
39555;BME280;25231;48.746;9.234;2022-07-10T05:01:34;97346.94;;;15.16;100.00
39555;BME280;25231;48.746;9.234;2022-07-10T05:03:59;97352.00;;;15.17;100.00
39555;BME280;25231;48.746;9.234;2022-07-10T05:06:25;97347.66;;;15.28;100.00
39555;BME280;25231;48.746;9.234;2022-07-10T05:08:50;97352.88;;;15.23;100.00
39555;BME280;25231;48.746;9.234;2022-07-10T05:11:16;97354.72;;;14.89;100.00
39555;BME280;25231;48.746;9.234;2022-07-10T05:13:41;97355.19;;;15.03;100.00
39555;BME280;25231;48.746;9.234;2022-07-10T05:16:10;97359.09;;;14.83;100.00
39555;BME280;25231;48.746;9.234;2022-07-10T05:18:36;97358.81;;;15.13;100.00
39555;BME280;25231;48.746;9.234;2022-07-10T05:21:01;97359.25;;;15.10;100.00
39555;BME280;25231;48.746;9.234;2022-07-10T05:23:27;97364.22;;;15.23;100.00
39555;BME280;25231;48.746;9.234;2022-07-10T05:25:52;97358.63;;;15.20;100.00
39555;BME280;25231;48.746;9.234;2022-07-10T05:28:18;97369.66;;;15.17;100.00
39555;BME280;25231;48.746;9.234;2022-07-10T05:30:43;97375.59;;;15.07;100.00
39555;BME280;25231;48.746;9.234;2022-07-10T05:33:09;97374.22;;;15.05;100.00
39555;BME280;25231;48.746;9.234;2022-07-10T05:35:34;97372.31;;;15.17;100.00
39555;BME280;25231;48.746;9.234;2022-07-10T05:37:59;97378.00;;;15.25;100.00
39555;BME280;25231;48.746;9.234;2022-07-10T05:40:25;97374.94;;;15.33;100.00
39555;BME280;25231;48.746;9.234;2022-07-10T05:42:51;97377.81;;;15.65;97.80
39555;BME280;25231;48.746;9.234;2022-07-10T05:45:17;97377.63;;;15.72;94.13
39555;BME280;25231;48.746;9.234;2022-07-10T05:47:42;97369.03;;;15.26;96.89
39555;BME280;25231;48.746;9.234;2022-07-10T05:50:08;97372.00;;;14.96;98.58
39555;BME280;25231;48.746;9.234;2022-07-10T05:52:33;97384.56;;;15.23;96.47
39555;BME280;25231;48.746;9.234;2022-07-10T05:54:59;97380.59;;;15.97;93.58
39555;BME280;25231;48.746;9.234;2022-07-10T05:57:24;97380.78;;;16.61;87.90
39555;BME280;25231;48.746;9.234;2022-07-10T05:59:50;97386.03;;;16.34;84.46
39555;BME280;25231;48.746;9.234;2022-07-10T06:02:16;97392.28;;;16.50;82.86
39555;BME280;25231;48.746;9.234;2022-07-10T06:04:42;97393.88;;;16.24;85.87
39555;BME280;25231;48.746;9.234;2022-07-10T06:07:08;97396.16;;;16.15;86.97
39555;BME280;25231;48.746;9.234;2022-07-10T06:09:34;97401.06;;;15.85;83.98
39555;BME280;25231;48.746;9.234;2022-07-10T06:12:00;97402.88;;;15.63;84.53
39555;BME280;25231;48.746;9.234;2022-07-10T06:14:26;97395.34;;;15.38;84.57
39555;BME280;25231;48.746;9.234;2022-07-10T06:16:51;97394.94;;;15.46;83.65
39555;BME280;25231;48.746;9.234;2022-07-10T06:19:17;97393.31;;;15.78;82.98
39555;BME280;25231;48.746;9.234;2022-07-10T06:21:43;97391.16;;;16.19;80.87
39555;BME280;25231;48.746;9.234;2022-07-10T06:24:09;97393.06;;;15.80;82.32
39555;BME280;25231;48.746;9.234;2022-07-10T06:26:34;97396.22;;;15.99;82.36
39555;BME280;25231;48.746;9.234;2022-07-10T06:29:00;97394.97;;;15.85;83.14
39555;BME280;25231;48.746;9.234;2022-07-10T06:31:25;97401.00;;;16.02;82.62
39555;BME280;25231;48.746;9.234;2022-07-10T06:33:51;97399.78;;;16.58;80.54
39555;BME280;25231;48.746;9.234;2022-07-10T06:36:16;97400.75;;;16.25;81.72
39555;BME280;25231;48.746;9.234;2022-07-10T06:38:42;97401.97;;;16.39;80.96
39555;BME280;25231;48.746;9.234;2022-07-10T06:41:07;97404.63;;;16.39;81.48
39555;BME280;25231;48.746;9.234;2022-07-10T06:43:34;97401.91;;;16.34;81.55
39555;BME280;25231;48.746;9.234;2022-07-10T06:45:59;97410.66;;;16.13;81.62
39555;BME280;25231;48.746;9.234;2022-07-10T06:48:26;97415.03;;;16.02;82.67
39555;BME280;25231;48.746;9.234;2022-07-10T06:50:52;97411.94;;;16.54;81.72
39555;BME280;25231;48.746;9.234;2022-07-10T06:53:17;97410.16;;;16.86;80.70
39555;BME280;25231;48.746;9.234;2022-07-10T06:55:43;97408.56;;;16.37;82.43
39555;BME280;25231;48.746;9.234;2022-07-10T06:58:08;97409.41;;;16.64;80.92
39555;BME280;25231;48.746;9.234;2022-07-10T07:00:34;97418.88;;;15.95;81.58
39555;BME280;25231;48.746;9.234;2022-07-10T07:02:59;97414.16;;;16.40;79.86
39555;BME280;25231;48.746;9.234;2022-07-10T07:05:25;97420.22;;;16.14;80.49
39555;BME280;25231;48.746;9.234;2022-07-10T07:07:50;97420.03;;;15.99;80.46
39555;BME280;25231;48.746;9.234;2022-07-10T07:10:16;97416.47;;;16.32;78.46
39555;BME280;25231;48.746;9.234;2022-07-10T07:12:41;97411.63;;;16.99;73.91
39555;BME280;25231;48.746;9.234;2022-07-10T07:15:07;97418.97;;;16.65;74.46
39555;BME280;25231;48.746;9.234;2022-07-10T07:17:33;97422.91;;;16.41;76.89
39555;BME280;25231;48.746;9.234;2022-07-10T07:20:22;97421.47;;;16.33;76.48
39555;BME280;25231;48.746;9.234;2022-07-10T07:23:06;97418.25;;;16.26;76.22
39555;BME280;25231;48.746;9.234;2022-07-10T07:25:38;97424.75;;;16.62;73.62
39555;BME280;25231;48.746;9.234;2022-07-10T07:28:07;97430.09;;;16.94;74.12
39555;BME280;25231;48.746;9.234;2022-07-10T07:30:33;97423.41;;;16.86;73.88
39555;BME280;25231;48.746;9.234;2022-07-10T07:32:58;97431.06;;;17.46;70.54
39555;BME280;25231;48.746;9.234;2022-07-10T07:35:23;97435.13;;;16.69;73.00
39555;BME280;25231;48.746;9.234;2022-07-10T07:37:50;97440.38;;;16.63;73.54
39555;BME280;25231;48.746;9.234;2022-07-10T07:40:19;97435.75;;;16.54;73.01
39555;BME280;25231;48.746;9.234;2022-07-10T07:42:46;97448.56;;;16.40;73.49
39555;BME280;25231;48.746;9.234;2022-07-10T07:45:12;97425.53;;;16.62;72.76
39555;BME280;25231;48.746;9.234;2022-07-10T07:47:46;97445.78;;;16.52;71.49
39555;BME280;25231;48.746;9.234;2022-07-10T07:50:17;97444.00;;;16.14;72.69
39555;BME280;25231;48.746;9.234;2022-07-10T07:52:44;97440.44;;;16.25;72.47
39555;BME280;25231;48.746;9.234;2022-07-10T07:55:11;97450.16;;;16.41;71.56
39555;BME280;25231;48.746;9.234;2022-07-10T07:57:37;97451.66;;;16.32;71.47
39555;BME280;25231;48.746;9.234;2022-07-10T08:00:04;97439.22;;;16.33;71.56
39555;BME280;25231;48.746;9.234;2022-07-10T08:02:30;97436.06;;;16.57;71.32
39555;BME280;25231;48.746;9.234;2022-07-10T08:04:56;97432.22;;;16.21;72.64
39555;BME280;25231;48.746;9.234;2022-07-10T08:07:21;97435.22;;;16.30;72.09
39555;BME280;25231;48.746;9.234;2022-07-10T08:09:46;97441.59;;;16.34;72.50
39555;BME280;25231;48.746;9.234;2022-07-10T08:12:14;97437.56;;;16.27;73.49
39555;BME280;25231;48.746;9.234;2022-07-10T08:14:39;97433.59;;;16.51;72.90
39555;BME280;25231;48.746;9.234;2022-07-10T08:17:05;97432.28;;;17.34;69.05
39555;BME280;25231;48.746;9.234;2022-07-10T08:19:30;97430.63;;;17.28;68.69
39555;BME280;25231;48.746;9.234;2022-07-10T08:21:55;97424.59;;;17.64;66.13
39555;BME280;25231;48.746;9.234;2022-07-10T08:24:21;97418.97;;;18.08;65.07
39555;BME280;25231;48.746;9.234;2022-07-10T08:26:46;97418.88;;;17.82;65.55
39555;BME280;25231;48.746;9.234;2022-07-10T08:29:12;97416.94;;;17.73;66.32
39555;BME280;25231;48.746;9.234;2022-07-10T08:31:37;97421.41;;;17.67;65.45
39555;BME280;25231;48.746;9.234;2022-07-10T08:34:05;97414.97;;;18.00;64.67
39555;BME280;25231;48.746;9.234;2022-07-10T08:36:30;97417.22;;;17.39;66.66
39555;BME280;25231;48.746;9.234;2022-07-10T08:38:56;97414.03;;;17.37;68.32
39555;BME280;25231;48.746;9.234;2022-07-10T08:41:25;97426.13;;;17.28;68.33
39555;BME280;25231;48.746;9.234;2022-07-10T08:43:51;97404.50;;;18.41;64.29
39555;BME280;25231;48.746;9.234;2022-07-10T08:46:17;97406.53;;;19.21;60.52
39555;BME280;25231;48.746;9.234;2022-07-10T08:48:47;97408.53;;;18.48;62.68
39555;BME280;25231;48.746;9.234;2022-07-10T08:51:21;97415.03;;;17.63;64.97
39555;BME280;25231;48.746;9.234;2022-07-10T08:53:49;97402.56;;;17.27;67.13
39555;BME280;25231;48.746;9.234;2022-07-10T08:56:16;97408.81;;;17.11;66.31
39555;BME280;25231;48.746;9.234;2022-07-10T08:58:42;97409.25;;;17.71;64.80
39555;BME280;25231;48.746;9.234;2022-07-10T09:01:07;97405.69;;;18.03;63.36
39555;BME280;25231;48.746;9.234;2022-07-10T09:03:33;97416.25;;;17.56;64.54
39555;BME280;25231;48.746;9.234;2022-07-10T09:05:58;97415.91;;;17.42;64.02
39555;BME280;25231;48.746;9.234;2022-07-10T09:08:25;97415.97;;;17.52;63.70
39555;BME280;25231;48.746;9.234;2022-07-10T09:11:14;97420.69;;;18.39;61.40
39555;BME280;25231;48.746;9.234;2022-07-10T09:18:50;97425.47;;;18.32;60.07
39555;BME280;25231;48.746;9.234;2022-07-10T09:21:16;97418.66;;;17.57;61.96
39555;BME280;25231;48.746;9.234;2022-07-10T09:23:41;97423.38;;;17.82;61.15
39555;BME280;25231;48.746;9.234;2022-07-10T09:26:07;97419.56;;;18.20;61.02
39555;BME280;25231;48.746;9.234;2022-07-10T09:28:32;97431.03;;;18.36;59.74
39555;BME280;25231;48.746;9.234;2022-07-10T09:31:00;97432.03;;;18.19;60.39
39555;BME280;25231;48.746;9.234;2022-07-10T09:33:26;97432.22;;;18.03;60.67
39555;BME280;25231;48.746;9.234;2022-07-10T09:41:17;97428.34;;;17.73;60.99
39555;BME280;25231;48.746;9.234;2022-07-10T09:43:52;97429.03;;;18.63;57.97
39555;BME280;25231;48.746;9.234;2022-07-10T09:46:20;97429.22;;;18.51;55.75
39555;BME280;25231;48.746;9.234;2022-07-10T09:48:47;97419.94;;;18.49;55.61
39555;BME280;25231;48.746;9.234;2022-07-10T09:51:13;97416.63;;;18.94;55.57
39555;BME280;25231;48.746;9.234;2022-07-10T09:53:43;97417.06;;;18.55;56.29
39555;BME280;25231;48.746;9.234;2022-07-10T09:56:11;97420.16;;;18.32;56.06
39555;BME280;25231;48.746;9.234;2022-07-10T09:58:38;97423.78;;;18.83;54.80
39555;BME280;25231;48.746;9.234;2022-07-10T10:01:05;97430.00;;;18.47;54.71
39555;BME280;25231;48.746;9.234;2022-07-10T10:03:35;97424.84;;;18.87;54.32
39555;BME280;25231;48.746;9.234;2022-07-10T10:06:11;97428.03;;;19.25;53.59
39555;BME280;25231;48.746;9.234;2022-07-10T10:09:12;97430.44;;;19.41;52.97
39555;BME280;25231;48.746;9.234;2022-07-10T10:11:41;97424.16;;;18.45;54.27
39555;BME280;25231;48.746;9.234;2022-07-10T10:14:09;97413.59;;;18.50;54.09
39555;BME280;25231;48.746;9.234;2022-07-10T10:16:35;97421.34;;;18.66;54.63
39555;BME280;25231;48.746;9.234;2022-07-10T10:19:02;97410.88;;;18.40;54.58
39555;BME280;25231;48.746;9.234;2022-07-10T10:21:46;97413.91;;;18.68;54.24
39555;BME280;25231;48.746;9.234;2022-07-10T10:24:13;97416.56;;;18.68;53.32
39555;BME280;25231;48.746;9.234;2022-07-10T10:26:40;97411.53;;;18.72;53.67
39555;BME280;25231;48.746;9.234;2022-07-10T10:29:06;97409.94;;;18.76;53.82
39555;BME280;25231;48.746;9.234;2022-07-10T10:31:34;97414.22;;;19.02;53.59
39555;BME280;25231;48.746;9.234;2022-07-10T10:34:00;97400.66;;;19.29;52.88
39555;BME280;25231;48.746;9.234;2022-07-10T10:41:46;97411.97;;;18.49;53.71
39555;BME280;25231;48.746;9.234;2022-07-10T10:46:54;97389.75;;;18.95;53.21
39555;BME280;25231;48.746;9.234;2022-07-10T10:49:28;97386.06;;;18.91;52.48
39555;BME280;25231;48.746;9.234;2022-07-10T10:52:13;97397.13;;;18.53;53.15
39555;BME280;25231;48.746;9.234;2022-07-10T10:57:22;97395.72;;;18.25;53.43
39555;BME280;25231;48.746;9.234;2022-07-10T10:59:51;97397.09;;;18.43;53.74
39555;BME280;25231;48.746;9.234;2022-07-10T11:02:21;97395.09;;;19.10;52.83
39555;BME280;25231;48.746;9.234;2022-07-10T11:04:50;97394.81;;;18.87;52.42
39555;BME280;25231;48.746;9.234;2022-07-10T11:10:43;97382.22;;;18.37;53.08
39555;BME280;25231;48.746;9.234;2022-07-10T11:13:11;97381.78;;;19.00;51.64
39555;BME280;25231;48.746;9.234;2022-07-10T11:18:11;97396.16;;;19.55;51.27
39555;BME280;25231;48.746;9.234;2022-07-10T11:20:39;97398.28;;;19.43;51.57
39555;BME280;25231;48.746;9.234;2022-07-10T11:26:23;97391.63;;;18.90;50.97
39555;BME280;25231;48.746;9.234;2022-07-10T11:28:59;97393.72;;;18.73;51.04
39555;BME280;25231;48.746;9.234;2022-07-10T11:31:27;97399.84;;;19.34;50.22
39555;BME280;25231;48.746;9.234;2022-07-10T11:33:55;97388.97;;;19.61;50.23
39555;BME280;25231;48.746;9.234;2022-07-10T11:36:23;97384.72;;;19.55;50.59
39555;BME280;25231;48.746;9.234;2022-07-10T11:38:58;97393.50;;;19.45;50.10
39555;BME280;25231;48.746;9.234;2022-07-10T11:41:24;97385.25;;;19.36;51.28
39555;BME280;25231;48.746;9.234;2022-07-10T11:43:52;97384.13;;;19.83;50.12
39555;BME280;25231;48.746;9.234;2022-07-10T11:46:22;97395.09;;;19.46;49.59
39555;BME280;25231;48.746;9.234;2022-07-10T11:48:50;97385.78;;;18.88;50.90
39555;BME280;25231;48.746;9.234;2022-07-10T11:51:29;97383.66;;;18.80;49.82
39555;BME280;25231;48.746;9.234;2022-07-10T11:54:24;97378.88;;;18.72;49.23
39555;BME280;25231;48.746;9.234;2022-07-10T11:56:52;97379.13;;;18.85;49.77
39555;BME280;25231;48.746;9.234;2022-07-10T11:59:23;97381.53;;;19.02;48.88
39555;BME280;25231;48.746;9.234;2022-07-10T12:01:50;97377.81;;;19.43;47.90
39555;BME280;25231;48.746;9.234;2022-07-10T12:04:19;97377.53;;;19.25;49.51
39555;BME280;25231;48.746;9.234;2022-07-10T12:06:52;97382.88;;;19.20;49.62
39555;BME280;25231;48.746;9.234;2022-07-10T12:09:20;97386.34;;;19.00;48.89
39555;BME280;25231;48.746;9.234;2022-07-10T12:14:26;97388.72;;;19.01;49.38
39555;BME280;25231;48.746;9.234;2022-07-10T12:16:52;97380.72;;;18.71;49.79
39555;BME280;25231;48.746;9.234;2022-07-10T12:19:29;97385.78;;;19.23;48.33
39555;BME280;25231;48.746;9.234;2022-07-10T12:21:57;97376.06;;;20.03;47.02
39555;BME280;25231;48.746;9.234;2022-07-10T12:24:24;97365.59;;;20.27;46.33
39555;BME280;25231;48.746;9.234;2022-07-10T12:26:50;97383.91;;;19.34;49.37
39555;BME280;25231;48.746;9.234;2022-07-10T12:31:48;97386.94;;;20.12;47.25
39555;BME280;25231;48.746;9.234;2022-07-10T12:34:16;97382.28;;;19.83;46.29
39555;BME280;25231;48.746;9.234;2022-07-10T12:36:45;97378.91;;;20.27;45.04
39555;BME280;25231;48.746;9.234;2022-07-10T12:39:13;97374.09;;;20.39;45.00
39555;BME280;25231;48.746;9.234;2022-07-10T12:41:58;97379.69;;;19.02;47.27
39555;BME280;25231;48.746;9.234;2022-07-10T12:44:44;97387.66;;;18.82;48.11
39555;BME280;25231;48.746;9.234;2022-07-10T12:47:15;97395.06;;;18.80;47.46
39555;BME280;25231;48.746;9.234;2022-07-10T12:49:54;97387.34;;;18.74;46.80
39555;BME280;25231;48.746;9.234;2022-07-10T12:52:34;97385.25;;;18.71;47.22
39555;BME280;25231;48.746;9.234;2022-07-10T12:55:14;97379.94;;;18.71;44.83
39555;BME280;25231;48.746;9.234;2022-07-10T12:57:46;97383.09;;;18.62;46.55
39555;BME280;25231;48.746;9.234;2022-07-10T13:00:13;97382.34;;;19.02;46.46
39555;BME280;25231;48.746;9.234;2022-07-10T13:02:38;97382.56;;;19.57;45.61
39555;BME280;25231;48.746;9.234;2022-07-10T13:05:04;97384.69;;;19.65;44.63
39555;BME280;25231;48.746;9.234;2022-07-10T13:07:35;97389.16;;;19.95;44.60
39555;BME280;25231;48.746;9.234;2022-07-10T13:10:02;97376.97;;;19.63;45.09
39555;BME280;25231;48.746;9.234;2022-07-10T13:12:28;97380.69;;;19.67;44.02
39555;BME280;25231;48.746;9.234;2022-07-10T13:14:54;97381.00;;;19.45;45.09
39555;BME280;25231;48.746;9.234;2022-07-10T13:17:19;97370.38;;;19.30;45.53
39555;BME280;25231;48.746;9.234;2022-07-10T13:19:45;97375.44;;;19.17;45.12
39555;BME280;25231;48.746;9.234;2022-07-10T13:22:10;97383.69;;;19.00;46.77
39555;BME280;25231;48.746;9.234;2022-07-10T13:24:36;97391.38;;;18.91;46.84
39555;BME280;25231;48.746;9.234;2022-07-10T13:27:01;97374.88;;;18.69;46.83
39555;BME280;25231;48.746;9.234;2022-07-10T13:29:27;97381.53;;;18.72;46.52
39555;BME280;25231;48.746;9.234;2022-07-10T13:31:52;97390.56;;;18.71;46.75
39555;BME280;25231;48.746;9.234;2022-07-10T13:34:18;97373.31;;;19.03;46.86